Time;durP1;ratioP1;P1;durP2;ratioP2;P2;SDS_P1;SDS_P2;PMS_P1;PMS_P2;Temp;Humidity;BMP_temperature;BMP_pressure;BME280_temperature;BME280_humidity;BME280_pressure;Samples;Min_cycle;Max_cycle;Signal;HPM_P1;HPM_P2
2023/02/26 00:01:12;;;;;;;;;;;19.40;63.30;;;;;;5038091;28;1263;-69
2023/02/26 00:03:38;;;;;;;;;;;19.40;63.30;;;;;;5039643;28;1967;-69
2023/02/26 00:06:03;;;;;;;;;;;19.40;63.40;;;;;;5040590;28;951;-70
2023/02/26 00:08:30;;;;;;;;;;;19.40;63.40;;;;;;5039395;28;891;-69
2023/02/26 00:10:56;;;;;;;;;;;19.40;63.40;;;;;;5034307;28;1358;-69
2023/02/26 00:13:21;;;;;;;;;;;19.40;63.40;;;;;;5035640;28;903;-70
2023/02/26 00:15:47;;;;;;;;;;;19.40;63.50;;;;;;5039846;28;942;-70
2023/02/26 00:18:13;;;;;;;;;;;19.40;63.50;;;;;;5071750;28;929;-71
2023/02/26 00:20:38;;;;;;;;;;;19.30;63.40;;;;;;5069808;28;1349;-70
2023/02/26 00:23:04;;;;;;;;;;;19.30;63.50;;;;;;5052903;28;1972;-70
2023/02/26 00:25:29;;;;;;;;;;;19.30;63.50;;;;;;5067029;28;908;-70
2023/02/26 00:27:55;;;;;;;;;;;19.30;63.50;;;;;;5071855;28;923;-70
2023/02/26 00:30:20;;;;;;;;;;;19.30;63.50;;;;;;5069075;28;903;-70
2023/02/26 00:32:46;;;;;;;;;;;19.30;63.50;;;;;;5076309;28;1124;-70
2023/02/26 00:35:12;;;;;;;;;;;19.30;63.50;;;;;;5037681;28;761;-70
2023/02/26 00:37:44;;;;;;;;;;;19.30;63.50;;;;;;5039173;28;993;-70
2023/02/26 00:40:09;;;;;;;;;;;19.30;63.60;;;;;;5038826;28;1213;-70
2023/02/26 00:42:35;;;;;;;;;;;19.30;63.60;;;;;;5040115;28;1184;-70
2023/02/26 00:45:00;;;;;;;;;;;19.30;63.60;;;;;;5068056;28;1963;-70
2023/02/26 00:47:29;;;;;;;;;;;19.30;63.60;;;;;;5037284;28;817;-70
2023/02/26 00:50:12;;;;;;;;;;;19.30;63.60;;;;;;5039409;28;1199;-71
2023/02/26 00:52:42;;;;;;;;;;;19.30;63.60;;;;;;5071502;28;1272;-70
2023/02/26 00:55:08;;;;;;;;;;;19.30;63.60;;;;;;5071786;28;912;-70
2023/02/26 00:57:33;;;;;;;;;;;19.20;63.60;;;;;;5076832;28;1166;-70
2023/02/26 00:59:59;;;;;;;;;;;19.30;63.70;;;;;;5074629;28;1014;-70
2023/02/26 01:02:24;;;;;;;;;;;19.20;63.60;;;;;;5042833;28;1289;-70
2023/02/26 01:04:50;;;;;;;;;;;19.20;63.60;;;;;;5074241;28;1898;-70
2023/02/26 01:07:16;;;;;;;;;;;19.20;63.70;;;;;;5040664;28;906;-70
2023/02/26 01:09:42;;;;;;;;;;;19.20;63.70;;;;;;5074506;28;819;-70
2023/02/26 01:12:08;;;;;;;;;;;19.20;63.70;;;;;;5042489;28;1249;-70
2023/02/26 01:14:34;;;;;;;;;;;19.20;63.70;;;;;;5072831;28;901;-70
2023/02/26 01:17:06;;;;;;;;;;;19.20;63.70;;;;;;5071162;28;891;-70
2023/02/26 01:19:37;;;;;;;;;;;19.20;63.70;;;;;;5043721;28;1318;-70
2023/02/26 01:22:05;;;;;;;;;;;19.20;63.70;;;;;;5073559;28;1331;-70
2023/02/26 01:24:30;;;;;;;;;;;19.20;63.80;;;;;;5073364;28;1980;-70
2023/02/26 01:26:56;;;;;;;;;;;19.20;63.70;;;;;;5076835;28;800;-70
2023/02/26 01:29:22;;;;;;;;;;;19.20;63.70;;;;;;5077421;28;786;-70
2023/02/26 01:31:47;;;;;;;;;;;19.20;63.70;;;;;;5074057;28;1290;-69
2023/02/26 01:34:15;;;;;;;;;;;19.10;63.70;;;;;;5040466;28;1233;-69
2023/02/26 01:36:42;;;;;;;;;;;19.20;63.80;;;;;;5042312;28;1385;-69
2023/02/26 01:39:29;;;;;;;;;;;19.20;63.80;;;;;;5070590;28;856;-69
2023/02/26 01:41:55;;;;;;;;;;;19.10;63.70;;;;;;5060605;28;1293;-69
2023/02/26 01:44:35;;;;;;;;;;;19.10;63.80;;;;;;5074573;28;1926;-69
2023/02/26 01:47:04;;;;;;;;;;;19.10;63.80;;;;;;5046184;28;904;-69
2023/02/26 01:49:30;;;;;;;;;;;19.10;63.70;;;;;;5038993;28;820;-69
2023/02/26 01:51:56;;;;;;;;;;;19.10;63.80;;;;;;5040323;28;1276;-69
2023/02/26 01:54:28;;;;;;;;;;;19.10;63.80;;;;;;5061059;28;1303;-70
2023/02/26 01:56:55;;;;;;;;;;;19.10;63.80;;;;;;5073521;28;848;-70
2023/02/26 01:59:23;;;;;;;;;;;19.10;63.80;;;;;;5077364;28;871;-70
2023/02/26 02:01:53;;;;;;;;;;;19.10;63.80;;;;;;5071417;28;1282;-70
2023/02/26 02:04:18;;;;;;;;;;;19.10;63.80;;;;;;5070245;28;1969;-70
2023/02/26 02:06:44;;;;;;;;;;;19.10;64.60;;;;;;5074152;28;992;-70
2023/02/26 02:09:10;;;;;;;;;;;19.10;63.80;;;;;;5072118;28;881;-70
2023/02/26 02:11:38;;;;;;;;;;;19.10;63.80;;;;;;5071143;28;1359;-70
2023/02/26 02:14:12;;;;;;;;;;;19.10;63.90;;;;;;5074145;28;943;-70
2023/02/26 02:16:56;;;;;;;;;;;19.10;63.90;;;;;;5042007;28;1200;-70
2023/02/26 02:19:43;;;;;;;;;;;19.10;63.90;;;;;;5037910;28;1096;-70
2023/02/26 02:22:27;;;;;;;;;;;19.00;63.80;;;;;;5041632;28;1203;-70
2023/02/26 02:25:15;;;;;;;;;;;19.00;63.90;;;;;;5041240;28;1981;-70
2023/02/26 02:27:58;;;;;;;;;;;19.00;63.90;;;;;;5073392;28;993;-70
2023/02/26 02:30:25;;;;;;;;;;;19.00;63.90;;;;;;5041009;28;864;-71
2023/02/26 02:32:53;;;;;;;;;;;19.00;63.90;;;;;;5036829;28;1232;-70
2023/02/26 02:35:19;;;;;;;;;;;19.00;63.90;;;;;;5069455;28;1039;-70
2023/02/26 02:37:46;;;;;;;;;;;19.00;63.90;;;;;;5041422;28;1072;-71
2023/02/26 02:40:13;;;;;;;;;;;19.00;63.90;;;;;;5071235;28;831;-70
2023/02/26 02:42:46;;;;;;;;;;;19.00;63.90;;;;;;5072880;28;1255;-71
2023/02/26 02:45:17;;;;;;;;;;;19.00;64.00;;;;;;5069033;28;833;-71
2023/02/26 02:47:43;;;;;;;;;;;19.00;64.00;;;;;;5074874;28;840;-71
2023/02/26 02:50:11;;;;;;;;;;;19.00;64.00;;;;;;5072534;28;1050;-70
2023/02/26 02:52:55;;;;;;;;;;;19.00;64.00;;;;;;5038442;28;1271;-70
2023/02/26 02:55:25;;;;;;;;;;;19.00;64.00;;;;;;5041536;28;859;-70
2023/02/26 02:57:52;;;;;;;;;;;19.00;64.00;;;;;;5068668;28;803;-70
2023/02/26 03:00:18;;;;;;;;;;;19.00;64.00;;;;;;5041033;28;889;-71
2023/02/26 03:02:47;;;;;;;;;;;18.90;64.00;;;;;;5071226;28;1948;-71
2023/02/26 03:05:12;;;;;;;;;;;18.90;64.00;;;;;;5041664;28;1007;-71
2023/02/26 03:07:40;;;;;;;;;;;18.90;63.90;;;;;;5070415;28;977;-70
2023/02/26 03:10:06;;;;;;;;;;;18.90;63.90;;;;;;5072249;28;1097;-71
2023/02/26 03:12:31;;;;;;;;;;;18.90;64.00;;;;;;5039427;28;1399;-69
2023/02/26 03:14:57;;;;;;;;;;;18.90;63.90;;;;;;5073224;28;888;-70
2023/02/26 03:17:37;;;;;;;;;;;18.90;63.90;;;;;;5072150;28;911;-70
2023/02/26 03:20:18;;;;;;;;;;;18.90;64.00;;;;;;5072184;28;1407;-69
2023/02/26 03:23:02;;;;;;;;;;;18.90;64.00;;;;;;5038902;28;1902;-69
2023/02/26 03:25:34;;;;;;;;;;;18.90;64.00;;;;;;5037575;28;1022;-70
2023/02/26 03:28:03;;;;;;;;;;;18.90;63.90;;;;;;5039724;28;847;-70
2023/02/26 03:30:31;;;;;;;;;;;18.90;63.90;;;;;;5071512;28;1346;-70
2023/02/26 03:33:00;;;;;;;;;;;18.90;63.90;;;;;;5072565;28;986;-70
2023/02/26 03:35:32;;;;;;;;;;;18.90;64.00;;;;;;5038866;28;895;-70
2023/02/26 03:37:58;;;;;;;;;;;18.90;64.00;;;;;;5056124;28;1440;-70
2023/02/26 03:40:29;;;;;;;;;;;18.90;64.00;;;;;;5070956;28;879;-70
2023/02/26 03:43:01;;;;;;;;;;;18.90;64.00;;;;;;5038730;28;1899;-70
2023/02/26 03:45:30;;;;;;;;;;;18.90;64.00;;;;;;5046867;28;1249;-70
2023/02/26 03:47:56;;;;;;;;;;;18.90;64.00;;;;;;5071974;28;1354;-70
2023/02/26 03:50:40;;;;;;;;;;;18.90;64.00;;;;;;5072298;28;914;-70
2023/02/26 03:53:06;;;;;;;;;;;18.90;64.00;;;;;;5040178;28;946;-70
2023/02/26 03:55:33;;;;;;;;;;;18.90;64.00;;;;;;5072053;28;898;-70
2023/02/26 03:57:59;;;;;;;;;;;18.90;64.00;;;;;;5071904;28;890;-71
2023/02/26 04:00:25;;;;;;;;;;;18.90;64.10;;;;;;5042085;28;971;-71
2023/02/26 04:03:01;;;;;;;;;;;18.90;64.00;;;;;;5073863;28;1894;-70
2023/02/26 04:05:27;;;;;;;;;;;18.90;64.00;;;;;;5071381;28;898;-70
2023/02/26 04:07:52;;;;;;;;;;;18.90;64.00;;;;;;5073193;28;917;-71
2023/02/26 04:10:18;;;;;;;;;;;18.90;64.00;;;;;;5056807;28;888;-71
2023/02/26 04:12:44;;;;;;;;;;;18.80;64.00;;;;;;5071982;28;1195;-70
2023/02/26 04:15:10;;;;;;;;;;;18.80;64.00;;;;;;5068044;28;1036;-70
2023/02/26 04:17:35;;;;;;;;;;;18.80;64.10;;;;;;5069090;28;1585;-74
2023/02/26 04:20:00;;;;;;;;;;;18.80;64.00;;;;;;5042901;28;1057;-71
2023/02/26 04:22:26;;;;;;;;;;;18.80;64.00;;;;;;5072503;28;1329;-70
2023/02/26 04:24:51;;;;;;;;;;;18.80;64.10;;;;;;5038163;28;1907;-70
2023/02/26 04:27:17;;;;;;;;;;;18.80;64.00;;;;;;5037358;28;789;-70
2023/02/26 04:29:42;;;;;;;;;;;18.80;64.00;;;;;;5039926;28;816;-70
2023/02/26 04:32:08;;;;;;;;;;;18.80;64.10;;;;;;5075655;28;1254;-70
2023/02/26 04:34:33;;;;;;;;;;;18.80;64.10;;;;;;5042846;28;865;-71
2023/02/26 04:36:59;;;;;;;;;;;18.80;64.10;;;;;;5046041;28;1383;-71
2023/02/26 04:39:24;;;;;;;;;;;18.80;64.10;;;;;;5045442;28;1074;-71
2023/02/26 04:41:49;;;;;;;;;;;18.80;64.10;;;;;;5044193;28;1700;-69
2023/02/26 04:44:15;;;;;;;;;;;18.80;64.10;;;;;;5042750;28;1930;-69
2023/02/26 04:46:40;;;;;;;;;;;18.80;64.20;;;;;;5043731;28;950;-69
2023/02/26 04:49:06;;;;;;;;;;;18.80;64.10;;;;;;5047390;28;923;-69
2023/02/26 04:51:31;;;;;;;;;;;18.80;64.10;;;;;;5044575;28;1359;-70
2023/02/26 04:53:57;;;;;;;;;;;18.70;64.10;;;;;;5078318;28;837;-70
2023/02/26 04:56:22;;;;;;;;;;;18.80;64.10;;;;;;5081594;28;937;-70
2023/02/26 04:58:48;;;;;;;;;;;18.70;64.10;;;;;;5045236;28;884;-69
2023/02/26 05:01:13;;;;;;;;;;;18.70;64.10;;;;;;5042021;28;1342;-69
2023/02/26 05:03:39;;;;;;;;;;;18.70;64.10;;;;;;5043745;28;1914;-70
2023/02/26 05:06:04;;;;;;;;;;;18.70;64.10;;;;;;5041331;28;946;-69
2023/02/26 05:08:30;;;;;;;;;;;18.70;64.10;;;;;;5045746;28;897;-69
2023/02/26 05:10:55;;;;;;;;;;;18.70;64.00;;;;;;5045342;28;1335;-69
2023/02/26 05:13:21;;;;;;;;;;;18.80;64.10;;;;;;5059375;28;1200;-69
2023/02/26 05:15:46;;;;;;;;;;;18.80;64.00;;;;;;5039873;28;899;-69
2023/02/26 05:18:13;;;;;;;;;;;18.80;63.90;;;;;;5044269;28;1082;-69
2023/02/26 05:20:38;;;;;;;;;;;18.80;63.80;;;;;;5075412;28;1686;-69
2023/02/26 05:23:03;;;;;;;;;;;18.90;63.70;;;;;;5043224;28;1891;-68
2023/02/26 05:25:29;;;;;;;;;;;18.90;63.60;;;;;;5072761;28;1921;-68
2023/02/26 05:27:54;;;;;;;;;;;18.90;63.40;;;;;;5075684;28;1006;-68
2023/02/26 05:30:20;;;;;;;;;;;19.00;63.40;;;;;;5044647;28;1419;-69
2023/02/26 05:32:45;;;;;;;;;;;19.00;63.20;;;;;;5042219;28;1274;-66
2023/02/26 05:35:11;;;;;;;;;;;19.00;63.10;;;;;;5075328;28;1061;-67
2023/02/26 05:37:37;;;;;;;;;;;19.00;63.00;;;;;;5076134;28;1123;-66
2023/02/26 05:40:03;;;;;;;;;;;19.10;62.90;;;;;;5067318;28;4413;-67
2023/02/26 05:42:29;;;;;;;;;;;19.30;62.90;;;;;;5040051;28;1211;-68
2023/02/26 05:44:54;;;;;;;;;;;19.40;62.70;;;;;;5041020;28;1989;-67
2023/02/26 05:47:20;;;;;;;;;;;19.60;62.30;;;;;;5042428;28;872;-68
2023/02/26 05:49:45;;;;;;;;;;;19.70;61.80;;;;;;5040319;28;1063;-68
2023/02/26 05:52:11;;;;;;;;;;;19.90;61.30;;;;;;5041631;28;1238;-67
2023/02/26 05:54:36;;;;;;;;;;;20.00;60.80;;;;;;5037349;28;1650;-69
2023/02/26 05:57:02;;;;;;;;;;;20.20;60.40;;;;;;5044395;28;1347;-69
2023/02/26 05:59:27;;;;;;;;;;;20.30;60.00;;;;;;5041486;28;1223;-70
2023/02/26 06:01:53;;;;;;;;;;;20.50;59.70;;;;;;5043106;28;1365;-68
2023/02/26 06:04:18;;;;;;;;;;;20.60;59.40;;;;;;5040930;28;1891;-68
2023/02/26 06:06:44;;;;;;;;;;;20.70;59.20;;;;;;5041418;28;1014;-71
2023/02/26 06:09:09;;;;;;;;;;;20.90;59.00;;;;;;5040246;28;835;-71
2023/02/26 06:11:35;;;;;;;;;;;20.90;58.70;;;;;;5041270;28;1266;-70
2023/02/26 06:14:00;;;;;;;;;;;21.00;58.50;;;;;;5042028;28;819;-71
2023/02/26 06:16:26;;;;;;;;;;;21.10;58.40;;;;;;5043279;28;932;-71
2023/02/26 06:18:51;;;;;;;;;;;21.20;58.20;;;;;;5045441;28;941;-68
2023/02/26 06:21:17;;;;;;;;;;;21.20;58.00;;;;;;5043074;28;1422;-68
2023/02/26 06:23:42;;;;;;;;;;;21.30;57.90;;;;;;5042792;28;1942;-68
2023/02/26 06:26:08;;;;;;;;;;;21.30;57.80;;;;;;5041011;28;864;-68
2023/02/26 06:28:33;;;;;;;;;;;21.30;57.70;;;;;;5043210;28;888;-68
2023/02/26 06:30:59;;;;;;;;;;;21.30;57.70;;;;;;5037229;28;1359;-69
2023/02/26 06:33:24;;;;;;;;;;;21.30;57.70;;;;;;5037820;28;984;-67
2023/02/26 06:35:50;;;;;;;;;;;21.30;57.70;;;;;;5038490;28;891;-67
2023/02/26 06:38:16;;;;;;;;;;;21.30;57.70;;;;;;5041792;28;1373;-69
2023/02/26 06:40:41;;;;;;;;;;;21.30;57.80;;;;;;5042130;28;1267;-68
2023/02/26 06:43:06;;;;;;;;;;;21.30;57.80;;;;;;5045862;28;1955;-70
2023/02/26 06:45:32;;;;;;;;;;;21.30;57.90;;;;;;5039489;28;871;-70
2023/02/26 06:47:57;;;;;;;;;;;21.20;57.90;;;;;;5038543;28;884;-69
2023/02/26 06:50:23;;;;;;;;;;;21.20;58.00;;;;;;5040154;28;871;-65
2023/02/26 06:52:48;;;;;;;;;;;21.20;58.10;;;;;;5038391;28;1419;-66
2023/02/26 06:55:14;;;;;;;;;;;21.20;58.20;;;;;;5034852;28;1010;-67
2023/02/26 06:57:39;;;;;;;;;;;21.10;58.20;;;;;;5036313;28;2246;-67
2023/02/26 07:00:05;;;;;;;;;;;21.10;58.30;;;;;;5034695;28;1062;-66
2023/02/26 07:02:30;;;;;;;;;;;21.10;58.30;;;;;;5039967;28;1283;-67
2023/02/26 07:04:56;;;;;;;;;;;21.10;58.70;;;;;;5041699;28;1898;-71
2023/02/26 07:07:21;;;;;;;;;;;21.00;58.40;;;;;;5036652;28;983;-66
2023/02/26 07:09:47;;;;;;;;;;;21.00;58.50;;;;;;5039615;28;954;-66
2023/02/26 07:12:13;;;;;;;;;;;21.00;58.50;;;;;;5040394;28;1342;-68
2023/02/26 07:14:39;;;;;;;;;;;21.00;58.60;;;;;;5042520;28;1002;-69
2023/02/26 07:17:04;;;;;;;;;;;21.00;58.60;;;;;;5039042;28;847;-70
2023/02/26 07:19:30;;;;;;;;;;;20.90;58.60;;;;;;5037701;28;979;-71
2023/02/26 07:21:55;;;;;;;;;;;20.90;58.60;;;;;;5037340;28;1354;-72
2023/02/26 07:24:21;;;;;;;;;;;20.90;58.70;;;;;;5038380;28;1906;-71
2023/02/26 07:26:46;;;;;;;;;;;20.90;58.80;;;;;;5037135;28;872;-67
2023/02/26 07:29:12;;;;;;;;;;;20.80;58.80;;;;;;5038709;28;872;-70
2023/02/26 07:31:38;;;;;;;;;;;20.80;58.90;;;;;;5038392;28;1448;-67
2023/02/26 07:34:03;;;;;;;;;;;20.70;58.90;;;;;;5041394;28;858;-67
2023/02/26 07:36:29;;;;;;;;;;;20.70;58.90;;;;;;5039157;28;896;-68
2023/02/26 07:38:54;;;;;;;;;;;20.70;59.00;;;;;;5044543;28;1544;-69
2023/02/26 07:41:20;;;;;;;;;;;20.70;59.10;;;;;;5036683;28;1266;-69
2023/02/26 07:43:45;;;;;;;;;;;20.60;59.10;;;;;;5038098;28;1898;-68
2023/02/26 07:46:11;;;;;;;;;;;20.60;59.20;;;;;;5040042;28;887;-68
2023/02/26 07:48:36;;;;;;;;;;;20.60;59.20;;;;;;5037335;28;875;-69
2023/02/26 07:51:02;;;;;;;;;;;20.60;59.30;;;;;;5037874;28;1338;-67
2023/02/26 07:53:27;;;;;;;;;;;20.60;59.40;;;;;;5039096;28;855;-69
2023/02/26 07:55:53;;;;;;;;;;;20.50;59.40;;;;;;5038241;28;983;-69
2023/02/26 07:58:18;;;;;;;;;;;20.50;59.50;;;;;;5039295;28;934;-69
2023/02/26 08:00:44;;;;;;;;;;;20.50;59.50;;;;;;5039713;28;1845;-69
2023/02/26 08:03:09;;;;;;;;;;;20.40;59.60;;;;;;5040835;28;1902;-69
2023/02/26 08:05:35;;;;;;;;;;;20.40;59.70;;;;;;5039081;28;1182;-69
2023/02/26 08:08:02;;;;;;;;;;;20.40;59.80;;;;;;5042247;28;1220;-69
2023/02/26 08:10:27;;;;;;;;;;;20.30;59.80;;;;;;5041100;28;1382;-69
2023/02/26 08:12:53;;;;;;;;;;;20.30;59.80;;;;;;5038691;28;1581;-69
2023/02/26 08:15:18;;;;;;;;;;;20.30;59.90;;;;;;5038943;28;1299;-69
2023/02/26 08:17:44;;;;;;;;;;;20.30;60.40;;;;;;5036947;28;1211;-69
2023/02/26 08:20:10;;;;;;;;;;;20.30;61.00;;;;;;5041208;28;1984;-68
2023/02/26 08:22:36;;;;;;;;;;;20.30;61.30;;;;;;5044230;28;1530;-69
2023/02/26 08:25:01;;;;;;;;;;;20.30;61.90;;;;;;5042801;28;1933;-69
2023/02/26 08:27:27;;;;;;;;;;;20.30;62.00;;;;;;5042025;28;1033;-68
2023/02/26 08:29:53;;;;;;;;;;;20.30;62.20;;;;;;5041067;28;1010;-69
2023/02/26 08:32:18;;;;;;;;;;;20.20;62.20;;;;;;5043670;28;1359;-68
2023/02/26 08:34:44;;;;;;;;;;;20.20;62.50;;;;;;5042183;28;1053;-68
2023/02/26 08:37:10;;;;;;;;;;;20.20;62.60;;;;;;5038913;28;1054;-68
2023/02/26 08:39:37;;;;;;;;;;;20.20;62.80;;;;;;5040953;28;828;-68
2023/02/26 08:42:06;;;;;;;;;;;20.20;63.00;;;;;;5038046;28;1337;-68
2023/02/26 08:44:31;;;;;;;;;;;20.20;63.10;;;;;;5038753;28;1967;-68
2023/02/26 08:46:57;;;;;;;;;;;20.10;63.20;;;;;;5038303;28;987;-68
2023/02/26 08:49:22;;;;;;;;;;;20.10;63.20;;;;;;5038809;28;844;-68
2023/02/26 08:51:48;;;;;;;;;;;20.10;63.40;;;;;;5038775;28;1330;-68
2023/02/26 08:54:13;;;;;;;;;;;20.10;63.40;;;;;;5037806;28;872;-68
2023/02/26 08:56:39;;;;;;;;;;;20.10;63.50;;;;;;5041880;28;844;-68
2023/02/26 08:59:04;;;;;;;;;;;20.10;64.30;;;;;;5036027;28;922;-68
2023/02/26 09:01:30;;;;;;;;;;;20.10;63.60;;;;;;5038596;28;1370;-68
2023/02/26 09:03:55;;;;;;;;;;;20.10;63.70;;;;;;5038162;28;1902;-68
2023/02/26 09:06:21;;;;;;;;;;;20.10;63.60;;;;;;5038628;28;1022;-68
2023/02/26 09:08:46;;;;;;;;;;;20.10;63.90;;;;;;5039887;28;797;-67
2023/02/26 09:11:12;;;;;;;;;;;20.10;64.00;;;;;;5039923;28;1263;-68
2023/02/26 09:13:37;;;;;;;;;;;20.20;64.00;;;;;;5039721;28;955;-68
2023/02/26 09:16:03;;;;;;;;;;;20.20;63.90;;;;;;5036278;28;1619;-68
2023/02/26 09:18:28;;;;;;;;;;;20.20;63.90;;;;;;5040093;28;1463;-68
2023/02/26 09:20:54;;;;;;;;;;;20.20;64.00;;;;;;5043249;28;1315;-68
2023/02/26 09:23:19;;;;;;;;;;;20.20;63.90;;;;;;5046369;28;1906;-68
2023/02/26 09:25:45;;;;;;;;;;;20.20;63.90;;;;;;5039756;28;1010;-67
2023/02/26 09:28:10;;;;;;;;;;;20.20;63.90;;;;;;5041156;28;803;-67
2023/02/26 09:30:36;;;;;;;;;;;20.20;64.60;;;;;;5041283;28;1261;-68
2023/02/26 09:33:01;;;;;;;;;;;20.20;63.90;;;;;;5040260;28;868;-68
2023/02/26 09:35:27;;;;;;;;;;;20.20;63.80;;;;;;5039925;28;775;-68
2023/02/26 09:37:52;;;;;;;;;;;20.20;63.80;;;;;;5039546;28;1426;-68
2023/02/26 09:40:21;;;;;;;;;;;20.20;64.00;;;;;;5040353;28;911;-68
2023/02/26 09:42:49;;;;;;;;;;;20.20;63.90;;;;;;5040894;28;1348;-68
2023/02/26 09:45:19;;;;;;;;;;;20.20;64.00;;;;;;5039235;28;1963;-68
2023/02/26 09:47:46;;;;;;;;;;;20.20;63.90;;;;;;5042623;28;827;-68
2023/02/26 09:50:15;;;;;;;;;;;20.20;63.90;;;;;;5049110;28;891;-68
2023/02/26 09:52:43;;;;;;;;;;;20.20;63.90;;;;;;5041627;28;1335;-68
2023/02/26 09:55:14;;;;;;;;;;;20.20;63.90;;;;;;5036039;28;1236;-67
2023/02/26 09:57:43;;;;;;;;;;;20.20;64.10;;;;;;5046360;28;1460;-67
2023/02/26 10:00:16;;;;;;;;;;;20.20;64.10;;;;;;5049127;28;970;-68
2023/02/26 10:02:54;;;;;;;;;;;20.20;64.20;;;;;;5043080;28;1398;-67
2023/02/26 10:05:27;;;;;;;;;;;20.20;64.50;;;;;;5042613;28;1957;-67
2023/02/26 10:07:55;;;;;;;;;;;20.20;64.70;;;;;;5041954;28;1995;-67
2023/02/26 10:10:21;;;;;;;;;;;20.20;65.00;;;;;;5039056;28;1261;-68
2023/02/26 10:12:46;;;;;;;;;;;20.20;65.20;;;;;;5037733;28;1462;-68
2023/02/26 10:15:19;;;;;;;;;;;20.20;65.40;;;;;;5041942;28;1501;-68
2023/02/26 10:17:56;;;;;;;;;;;20.20;65.70;;;;;;5043415;28;1122;-68
2023/02/26 10:20:28;;;;;;;;;;;20.20;65.50;;;;;;5041555;28;1433;-68
2023/02/26 10:22:59;;;;;;;;;;;20.30;65.30;;;;;;5038647;28;955;-68
2023/02/26 10:25:27;;;;;;;;;;;20.30;65.20;;;;;;5040080;28;922;-69
2023/02/26 10:28:05;;;;;;;;;;;20.30;65.10;;;;;;5043555;28;910;-69
2023/02/26 10:30:42;;;;;;;;;;;20.30;64.80;;;;;;5039854;28;2058;-69
2023/02/26 10:33:14;;;;;;;;;;;20.40;64.80;;;;;;5038535;28;1979;-68
2023/02/26 10:35:52;;;;;;;;;;;20.40;64.60;;;;;;5039531;28;2256;-68
2023/02/26 10:38:19;;;;;;;;;;;20.40;64.40;;;;;;5029546;28;1398;-69
2023/02/26 10:40:58;;;;;;;;;;;20.40;64.30;;;;;;5040728;28;1153;-68
2023/02/26 10:43:24;;;;;;;;;;;20.40;64.50;;;;;;5044111;28;1902;-68
2023/02/26 10:45:49;;;;;;;;;;;20.30;64.70;;;;;;5041961;28;1182;-69
2023/02/26 10:48:35;;;;;;;;;;;20.30;64.80;;;;;;5040090;28;1046;-68
2023/02/26 10:51:04;;;;;;;;;;;20.30;65.00;;;;;;5040228;28;1253;-68
2023/02/26 10:53:29;;;;;;;;;;;20.30;64.90;;;;;;5040698;28;975;-68
2023/02/26 10:55:58;;;;;;;;;;;20.30;64.90;;;;;;5044902;28;911;-68
2023/02/26 10:58:24;;;;;;;;;;;20.30;64.90;;;;;;5042538;28;862;-68
2023/02/26 11:00:52;;;;;;;;;;;20.30;64.80;;;;;;5038694;28;1315;-68
2023/02/26 11:03:24;;;;;;;;;;;20.30;64.90;;;;;;5038884;28;1977;-68
2023/02/26 11:05:50;;;;;;;;;;;20.30;64.80;;;;;;5040602;28;1171;-68
2023/02/26 11:08:19;;;;;;;;;;;20.30;65.40;;;;;;5039196;28;1522;-68
2023/02/26 11:10:55;;;;;;;;;;;20.20;65.00;;;;;;5039740;28;1257;-68
2023/02/26 11:13:30;;;;;;;;;;;20.20;65.10;;;;;;5039165;28;872;-68
2023/02/26 11:15:56;;;;;;;;;;;20.10;65.30;;;;;;5040884;28;1269;-68
2023/02/26 11:18:29;;;;;;;;;;;20.10;66.60;;;;;;5045965;28;1046;-68
2023/02/26 11:20:56;;;;;;;;;;;20.10;65.30;;;;;;5038710;28;1375;-68
2023/02/26 11:23:22;;;;;;;;;;;20.10;65.40;;;;;;5040920;28;1930;-69
2023/02/26 11:25:51;;;;;;;;;;;20.10;65.50;;;;;;5038779;28;829;-68
2023/02/26 11:28:18;;;;;;;;;;;20.10;65.80;;;;;;5037483;28;843;-69
2023/02/26 11:30:44;;;;;;;;;;;20.10;65.90;;;;;;5036296;28;1270;-69
2023/02/26 11:33:14;;;;;;;;;;;20.00;65.80;;;;;;5037759;28;1431;-68
2023/02/26 11:35:40;;;;;;;;;;;20.00;65.90;;;;;;5040046;28;876;-68
2023/02/26 11:38:05;;;;;;;;;;;20.00;65.90;;;;;;5038315;28;1131;-68
2023/02/26 11:40:38;;;;;;;;;;;20.00;66.00;;;;;;5038563;28;1446;-69
2023/02/26 11:43:04;;;;;;;;;;;20.00;66.00;;;;;;5040345;28;1902;-68
2023/02/26 11:45:29;;;;;;;;;;;20.00;66.10;;;;;;5040122;28;827;-68
2023/02/26 11:47:57;;;;;;;;;;;20.00;66.10;;;;;;5038364;28;1362;-68
2023/02/26 11:50:24;;;;;;;;;;;20.00;66.20;;;;;;5036405;28;1061;-68
2023/02/26 11:52:56;;;;;;;;;;;20.00;66.50;;;;;;5038831;28;1313;-68
2023/02/26 11:55:30;;;;;;;;;;;19.90;66.10;;;;;;5040830;28;804;-68
2023/02/26 11:57:56;;;;;;;;;;;19.90;66.20;;;;;;5036504;28;1132;-69
2023/02/26 12:00:28;;;;;;;;;;;19.90;66.30;;;;;;5036582;28;903;-69
2023/02/26 12:03:03;;;;;;;;;;;19.90;66.30;;;;;;5039010;28;862;-69
2023/02/26 12:05:28;;;;;;;;;;;19.90;66.40;;;;;;5038837;28;861;-69
2023/02/26 12:07:54;;;;;;;;;;;19.90;66.80;;;;;;5039463;28;802;-69
2023/02/26 12:10:22;;;;;;;;;;;19.90;67.20;;;;;;5036665;28;886;-69
2023/02/26 12:12:54;;;;;;;;;;;19.90;66.90;;;;;;5039213;28;1216;-69
2023/02/26 12:15:27;;;;;;;;;;;19.90;67.00;;;;;;5037051;28;973;-69
2023/02/26 12:17:59;;;;;;;;;;;19.90;67.00;;;;;;5037893;28;1033;-69
2023/02/26 12:20:28;;;;;;;;;;;19.90;66.80;;;;;;5035834;28;1850;-69
2023/02/26 12:23:03;;;;;;;;;;;19.90;66.80;;;;;;5045259;28;1538;-69
2023/02/26 12:25:29;;;;;;;;;;;20.00;66.90;;;;;;5038532;28;1366;-69
2023/02/26 12:28:14;;;;;;;;;;;19.90;67.70;;;;;;5038968;28;1341;-69
2023/02/26 12:30:48;;;;;;;;;;;19.90;66.90;;;;;;5040641;28;1869;-70
2023/02/26 12:33:13;;;;;;;;;;;19.90;66.90;;;;;;5040120;28;961;-68
2023/02/26 12:35:45;;;;;;;;;;;19.90;66.90;;;;;;5036302;28;1678;-68
2023/02/26 12:38:37;;;;;;;;;;;19.90;66.90;;;;;;5039844;28;1364;-68
2023/02/26 12:41:11;;;;;;;;;;;19.80;66.90;;;;;;5013907;28;1340;-69
2023/02/26 12:43:40;;;;;;;;;;;19.80;66.80;;;;;;5036321;28;1906;-69
2023/02/26 12:46:11;;;;;;;;;;;19.80;67.00;;;;;;5038238;28;852;-69
2023/02/26 12:48:54;;;;;;;;;;;19.80;67.00;;;;;;5037830;28;991;-69
2023/02/26 12:51:32;;;;;;;;;;;19.80;67.00;;;;;;5039204;28;1267;-69
2023/02/26 12:54:16;;;;;;;;;;;19.80;66.90;;;;;;5043942;28;844;-69
2023/02/26 12:56:48;;;;;;;;;;;19.80;66.90;;;;;;5044122;28;2142;-69
2023/02/26 12:59:22;;;;;;;;;;;19.80;67.10;;;;;;5042618;28;934;-70
2023/02/26 13:02:07;;;;;;;;;;;19.80;67.10;;;;;;5040202;28;1246;-70
2023/02/26 13:04:52;;;;;;;;;;;19.80;67.40;;;;;;5041597;28;1906;-69
2023/02/26 13:07:32;;;;;;;;;;;19.80;60.30;;;;;;5041083;28;923;-70
2023/02/26 13:10:01;;;;;;;;;;;19.70;56.30;;;;;;5039733;28;874;-70
2023/02/26 13:12:26;;;;;;;;;;;19.60;53.70;;;;;;5041209;28;1256;-70
2023/02/26 13:14:52;;;;;;;;;;;19.50;52.10;;;;;;5039722;28;975;-69
2023/02/26 13:17:17;;;;;;;;;;;19.40;50.70;;;;;;5045895;28;1527;-70
2023/02/26 13:19:47;;;;;;;;;;;19.30;51.40;;;;;;5041366;28;1448;-69
2023/02/26 13:22:23;;;;;;;;;;;19.30;52.00;;;;;;5040592;28;1311;-69
2023/02/26 13:24:53;;;;;;;;;;;19.30;52.90;;;;;;5042655;28;1950;-69
2023/02/26 13:27:18;;;;;;;;;;;19.20;53.70;;;;;;5043074;28;911;-68
2023/02/26 13:29:46;;;;;;;;;;;19.20;54.20;;;;;;5040773;28;796;-70
2023/02/26 13:32:13;;;;;;;;;;;19.20;54.80;;;;;;5051254;28;1389;-70
2023/02/26 13:34:44;;;;;;;;;;;19.20;55.20;;;;;;5042447;28;1308;-69
2023/02/26 13:37:17;;;;;;;;;;;19.20;55.90;;;;;;5047180;28;1457;-69
2023/02/26 13:39:47;;;;;;;;;;;19.20;56.60;;;;;;5075997;28;1342;-69
2023/02/26 13:42:17;;;;;;;;;;;19.20;56.80;;;;;;5042336;28;1270;-68
2023/02/26 13:45:01;;;;;;;;;;;19.20;57.30;;;;;;5042259;28;1910;-68
2023/02/26 13:47:32;;;;;;;;;;;19.20;57.70;;;;;;5038725;28;817;-69
2023/02/26 13:50:03;;;;;;;;;;;19.20;58.00;;;;;;5041066;28;963;-68
2023/02/26 13:52:30;;;;;;;;;;;19.20;58.40;;;;;;5041750;28;1268;-68
2023/02/26 13:54:58;;;;;;;;;;;19.20;58.50;;;;;;5040792;28;1116;-68
2023/02/26 13:57:42;;;;;;;;;;;19.20;58.50;;;;;;5042492;28;820;-68
2023/02/26 14:00:12;;;;;;;;;;;19.20;58.80;;;;;;5039219;28;871;-68
2023/02/26 14:02:37;;;;;;;;;;;19.20;59.00;;;;;;5041927;28;1277;-69
2023/02/26 14:05:06;;;;;;;;;;;19.30;59.30;;;;;;5042212;28;1973;-70
2023/02/26 14:07:48;;;;;;;;;;;19.30;59.40;;;;;;5044626;28;1036;-69
2023/02/26 14:10:24;;;;;;;;;;;19.30;59.60;;;;;;5058091;28;1538;-69
2023/02/26 14:13:07;;;;;;;;;;;19.30;59.70;;;;;;5039473;28;1215;-70
2023/02/26 14:15:40;;;;;;;;;;;19.30;59.80;;;;;;5042623;28;982;-70
2023/02/26 14:18:17;;;;;;;;;;;19.30;60.10;;;;;;5039993;28;858;-70
2023/02/26 14:20:43;;;;;;;;;;;19.30;60.10;;;;;;5026801;28;1312;-70
2023/02/26 14:23:09;;;;;;;;;;;19.30;60.20;;;;;;5024764;28;1381;-71
2023/02/26 14:25:36;;;;;;;;;;;19.30;60.20;;;;;;5038554;28;766;-70
2023/02/26 14:28:17;;;;;;;;;;;19.30;60.50;;;;;;5039786;28;990;-70
2023/02/26 14:30:45;;;;;;;;;;;19.30;60.70;;;;;;5039591;28;1338;-70
2023/02/26 14:33:12;;;;;;;;;;;19.40;61.10;;;;;;5043483;28;966;-70
2023/02/26 14:35:42;;;;;;;;;;;19.40;61.40;;;;;;5038456;28;899;-70
2023/02/26 14:38:10;;;;;;;;;;;19.50;61.00;;;;;;5038132;28;1400;-70
2023/02/26 14:40:37;;;;;;;;;;;19.60;61.00;;;;;;5040665;28;1301;-70
2023/02/26 14:43:03;;;;;;;;;;;19.70;60.90;;;;;;5041598;28;963;-70